sensor_id;sensor_type;location;lat;lon;timestamp;P1;durP1;ratioP1;P2;durP2;ratioP2
1140;SDS011;559;48.628;8.924;2023-07-31T00:00:13;95.00;;;90.57;;
1140;SDS011;559;48.628;8.924;2023-07-31T00:02:40;91.07;;;86.93;;
1140;SDS011;559;48.628;8.924;2023-07-31T00:05:08;88.50;;;84.40;;
1140;SDS011;559;48.628;8.924;2023-07-31T00:07:34;91.03;;;86.93;;
1140;SDS011;559;48.628;8.924;2023-07-31T00:10:01;93.03;;;88.63;;
1140;SDS011;559;48.628;8.924;2023-07-31T00:12:32;91.47;;;87.40;;
1140;SDS011;559;48.628;8.924;2023-07-31T00:14:59;93.57;;;89.47;;
1140;SDS011;559;48.628;8.924;2023-07-31T00:17:27;89.27;;;85.30;;
1140;SDS011;559;48.628;8.924;2023-07-31T00:19:54;91.13;;;86.73;;
1140;SDS011;559;48.628;8.924;2023-07-31T00:22:22;90.40;;;86.20;;
1140;SDS011;559;48.628;8.924;2023-07-31T00:24:49;90.63;;;86.53;;
1140;SDS011;559;48.628;8.924;2023-07-31T00:27:16;93.73;;;89.13;;
1140;SDS011;559;48.628;8.924;2023-07-31T00:29:48;91.63;;;87.03;;
1140;SDS011;559;48.628;8.924;2023-07-31T00:32:17;92.27;;;87.97;;
1140;SDS011;559;48.628;8.924;2023-07-31T00:48:58;90.33;;;86.17;;
1140;SDS011;559;48.628;8.924;2023-07-31T00:51:25;93.77;;;89.57;;
1140;SDS011;559;48.628;8.924;2023-07-31T00:53:51;95.47;;;91.17;;
1140;SDS011;559;48.628;8.924;2023-07-31T00:56:20;96.20;;;91.80;;
1140;SDS011;559;48.628;8.924;2023-07-31T00:58:47;99.57;;;95.00;;
1140;SDS011;559;48.628;8.924;2023-07-31T01:01:14;94.73;;;90.20;;
1140;SDS011;559;48.628;8.924;2023-07-31T01:03:41;93.47;;;89.27;;
1140;SDS011;559;48.628;8.924;2023-07-31T01:06:19;93.87;;;89.40;;
1140;SDS011;559;48.628;8.924;2023-07-31T01:08:54;94.30;;;90.00;;
1140;SDS011;559;48.628;8.924;2023-07-31T01:11:25;96.60;;;92.00;;
1140;SDS011;559;48.628;8.924;2023-07-31T01:13:54;94.07;;;89.87;;
1140;SDS011;559;48.628;8.924;2023-07-31T01:16:20;93.90;;;89.70;;
1140;SDS011;559;48.628;8.924;2023-07-31T01:18:47;94.50;;;90.10;;
1140;SDS011;559;48.628;8.924;2023-07-31T01:21:21;96.37;;;91.90;;
1140;SDS011;559;48.628;8.924;2023-07-31T01:24:07;95.20;;;90.80;;
1140;SDS011;559;48.628;8.924;2023-07-31T01:26:55;95.43;;;91.13;;
1140;SDS011;559;48.628;8.924;2023-07-31T01:29:25;97.33;;;93.03;;
1140;SDS011;559;48.628;8.924;2023-07-31T01:31:56;92.37;;;88.27;;
1140;SDS011;559;48.628;8.924;2023-07-31T01:34:22;92.83;;;88.53;;
1140;SDS011;559;48.628;8.924;2023-07-31T01:36:49;92.80;;;88.60;;
1140;SDS011;559;48.628;8.924;2023-07-31T01:39:16;94.33;;;90.13;;
1140;SDS011;559;48.628;8.924;2023-07-31T01:41:42;95.57;;;90.47;;
1140;SDS011;559;48.628;8.924;2023-07-31T01:44:10;93.03;;;88.80;;
1140;SDS011;559;48.628;8.924;2023-07-31T01:46:37;94.93;;;90.67;;
1140;SDS011;559;48.628;8.924;2023-07-31T01:49:03;92.73;;;88.43;;
1140;SDS011;559;48.628;8.924;2023-07-31T01:51:30;93.17;;;88.83;;
1140;SDS011;559;48.628;8.924;2023-07-31T01:53:59;90.77;;;86.60;;
1140;SDS011;559;48.628;8.924;2023-07-31T01:56:25;85.67;;;81.57;;
1140;SDS011;559;48.628;8.924;2023-07-31T01:58:52;80.20;;;76.40;;
1140;SDS011;559;48.628;8.924;2023-07-31T02:01:19;78.07;;;74.17;;
1140;SDS011;559;48.628;8.924;2023-07-31T02:03:46;73.82;;;70.13;;
1140;SDS011;559;48.628;8.924;2023-07-31T02:06:12;80.20;;;76.23;;
1140;SDS011;559;48.628;8.924;2023-07-31T02:08:39;76.93;;;72.95;;
1140;SDS011;559;48.628;8.924;2023-07-31T02:11:06;79.93;;;75.73;;
1140;SDS011;559;48.628;8.924;2023-07-31T02:13:32;79.30;;;75.27;;
1140;SDS011;559;48.628;8.924;2023-07-31T02:15:59;79.13;;;74.87;;
1140;SDS011;559;48.628;8.924;2023-07-31T02:18:27;79.30;;;74.87;;
1140;SDS011;559;48.628;8.924;2023-07-31T02:20:54;79.43;;;75.13;;
1140;SDS011;559;48.628;8.924;2023-07-31T02:23:20;79.07;;;74.87;;
1140;SDS011;559;48.628;8.924;2023-07-31T02:25:47;79.33;;;75.13;;
1140;SDS011;559;48.628;8.924;2023-07-31T02:28:13;81.67;;;77.10;;
1140;SDS011;559;48.628;8.924;2023-07-31T02:30:40;83.00;;;78.57;;
1140;SDS011;559;48.628;8.924;2023-07-31T02:33:10;80.30;;;76.00;;
1140;SDS011;559;48.628;8.924;2023-07-31T02:35:38;79.23;;;74.97;;
1140;SDS011;559;48.628;8.924;2023-07-31T02:38:04;78.53;;;74.40;;
1140;SDS011;559;48.628;8.924;2023-07-31T02:40:30;79.20;;;74.97;;
1140;SDS011;559;48.628;8.924;2023-07-31T02:42:57;74.67;;;70.37;;
1140;SDS011;559;48.628;8.924;2023-07-31T02:45:23;72.30;;;68.30;;
1140;SDS011;559;48.628;8.924;2023-07-31T02:47:50;71.27;;;67.37;;
1140;SDS011;559;48.628;8.924;2023-07-31T02:50:16;70.80;;;66.90;;
1140;SDS011;559;48.628;8.924;2023-07-31T02:52:44;69.72;;;65.93;;
1140;SDS011;559;48.628;8.924;2023-07-31T02:55:11;71.20;;;67.40;;
1140;SDS011;559;48.628;8.924;2023-07-31T02:57:37;70.43;;;66.73;;
1140;SDS011;559;48.628;8.924;2023-07-31T03:00:04;67.68;;;64.07;;
1140;SDS011;559;48.628;8.924;2023-07-31T03:02:32;68.23;;;64.53;;
1140;SDS011;559;48.628;8.924;2023-07-31T03:04:58;66.67;;;63.17;;
1140;SDS011;559;48.628;8.924;2023-07-31T03:07:25;66.30;;;62.70;;
1140;SDS011;559;48.628;8.924;2023-07-31T03:09:53;69.70;;;66.13;;
1140;SDS011;559;48.628;8.924;2023-07-31T03:12:19;65.67;;;62.27;;
1140;SDS011;559;48.628;8.924;2023-07-31T03:14:46;68.87;;;65.07;;
1140;SDS011;559;48.628;8.924;2023-07-31T03:17:12;71.32;;;67.53;;
1140;SDS011;559;48.628;8.924;2023-07-31T03:19:39;73.17;;;69.07;;
1140;SDS011;559;48.628;8.924;2023-07-31T03:22:05;75.13;;;70.83;;
1140;SDS011;559;48.628;8.924;2023-07-31T03:24:32;76.77;;;72.77;;
1140;SDS011;559;48.628;8.924;2023-07-31T03:27:00;73.10;;;68.93;;
1140;SDS011;559;48.628;8.924;2023-07-31T03:29:26;73.67;;;69.80;;
1140;SDS011;559;48.628;8.924;2023-07-31T03:31:53;78.73;;;74.53;;
1140;SDS011;559;48.628;8.924;2023-07-31T03:34:19;74.30;;;69.90;;
1140;SDS011;559;48.628;8.924;2023-07-31T03:36:46;70.90;;;67.10;;
1140;SDS011;559;48.628;8.924;2023-07-31T03:39:12;68.70;;;64.90;;
1140;SDS011;559;48.628;8.924;2023-07-31T03:41:39;69.90;;;65.90;;
1140;SDS011;559;48.628;8.924;2023-07-31T03:44:07;71.00;;;67.10;;
1140;SDS011;559;48.628;8.924;2023-07-31T03:46:33;72.30;;;68.40;;
1140;SDS011;559;48.628;8.924;2023-07-31T03:49:01;74.10;;;69.90;;
1140;SDS011;559;48.628;8.924;2023-07-31T03:51:27;78.30;;;73.70;;
1140;SDS011;559;48.628;8.924;2023-07-31T03:53:54;74.93;;;70.63;;
1140;SDS011;559;48.628;8.924;2023-07-31T03:56:20;76.63;;;72.47;;
1140;SDS011;559;48.628;8.924;2023-07-31T03:58:47;70.33;;;66.23;;
1140;SDS011;559;48.628;8.924;2023-07-31T04:01:15;70.03;;;65.93;;
1140;SDS011;559;48.628;8.924;2023-07-31T04:03:41;70.27;;;66.17;;
1140;SDS011;559;48.628;8.924;2023-07-31T04:06:08;66.60;;;62.40;;
1140;SDS011;559;48.628;8.924;2023-07-31T04:08:35;65.10;;;61.03;;
1140;SDS011;559;48.628;8.924;2023-07-31T04:11:02;66.13;;;62.10;;
1140;SDS011;559;48.628;8.924;2023-07-31T04:13:29;64.30;;;60.10;;
1140;SDS011;559;48.628;8.924;2023-07-31T04:15:55;62.60;;;58.90;;
1140;SDS011;559;48.628;8.924;2023-07-31T04:18:24;59.27;;;55.67;;
1140;SDS011;559;48.628;8.924;2023-07-31T04:20:50;61.93;;;58.13;;
1140;SDS011;559;48.628;8.924;2023-07-31T04:23:17;61.60;;;57.70;;
1140;SDS011;559;48.628;8.924;2023-07-31T04:25:43;60.67;;;56.40;;
1140;SDS011;559;48.628;8.924;2023-07-31T04:28:10;60.10;;;56.60;;
1140;SDS011;559;48.628;8.924;2023-07-31T04:30:36;60.90;;;57.50;;
1140;SDS011;559;48.628;8.924;2023-07-31T04:33:03;59.03;;;55.50;;
1140;SDS011;559;48.628;8.924;2023-07-31T04:35:31;62.67;;;59.00;;
1140;SDS011;559;48.628;8.924;2023-07-31T04:37:57;60.70;;;56.97;;
1140;SDS011;559;48.628;8.924;2023-07-31T04:40:24;61.20;;;57.80;;
1140;SDS011;559;48.628;8.924;2023-07-31T04:42:50;61.17;;;57.90;;
1140;SDS011;559;48.628;8.924;2023-07-31T04:45:17;62.50;;;59.20;;
1140;SDS011;559;48.628;8.924;2023-07-31T04:47:43;62.20;;;59.00;;
1140;SDS011;559;48.628;8.924;2023-07-31T04:50:10;61.63;;;58.40;;
1140;SDS011;559;48.628;8.924;2023-07-31T04:52:38;61.50;;;58.13;;
1140;SDS011;559;48.628;8.924;2023-07-31T04:55:04;61.37;;;57.97;;
1140;SDS011;559;48.628;8.924;2023-07-31T04:57:31;61.07;;;57.67;;
1140;SDS011;559;48.628;8.924;2023-07-31T04:59:57;61.40;;;57.83;;
1140;SDS011;559;48.628;8.924;2023-07-31T05:02:24;62.47;;;58.93;;
1140;SDS011;559;48.628;8.924;2023-07-31T05:04:50;63.73;;;59.57;;
1140;SDS011;559;48.628;8.924;2023-07-31T05:07:17;63.57;;;60.27;;
1140;SDS011;559;48.628;8.924;2023-07-31T05:09:45;67.17;;;63.80;;
1140;SDS011;559;48.628;8.924;2023-07-31T05:12:11;63.60;;;60.20;;
1140;SDS011;559;48.628;8.924;2023-07-31T05:14:38;65.63;;;62.23;;
1140;SDS011;559;48.628;8.924;2023-07-31T05:17:05;64.40;;;61.00;;
1140;SDS011;559;48.628;8.924;2023-07-31T05:19:31;64.60;;;61.20;;
1140;SDS011;559;48.628;8.924;2023-07-31T05:21:58;66.97;;;63.47;;
1140;SDS011;559;48.628;8.924;2023-07-31T05:24:24;67.50;;;64.07;;
1140;SDS011;559;48.628;8.924;2023-07-31T05:26:52;66.33;;;63.03;;
1140;SDS011;559;48.628;8.924;2023-07-31T05:29:21;67.60;;;64.20;;
1140;SDS011;559;48.628;8.924;2023-07-31T05:31:47;68.30;;;65.00;;
1140;SDS011;559;48.628;8.924;2023-07-31T05:34:14;68.93;;;65.43;;
1140;SDS011;559;48.628;8.924;2023-07-31T05:36:40;71.03;;;67.73;;
1140;SDS011;559;48.628;8.924;2023-07-31T05:39:07;72.30;;;68.80;;
1140;SDS011;559;48.628;8.924;2023-07-31T05:41:33;67.37;;;63.97;;
1140;SDS011;559;48.628;8.924;2023-07-31T05:44:02;71.63;;;68.23;;
1140;SDS011;559;48.628;8.924;2023-07-31T05:46:29;72.20;;;68.90;;
1140;SDS011;559;48.628;8.924;2023-07-31T05:48:57;72.87;;;69.53;;
1140;SDS011;559;48.628;8.924;2023-07-31T05:51:25;72.23;;;68.90;;
1140;SDS011;559;48.628;8.924;2023-07-31T05:53:52;74.90;;;71.10;;
1140;SDS011;559;48.628;8.924;2023-07-31T05:56:18;69.43;;;66.33;;
1140;SDS011;559;48.628;8.924;2023-07-31T05:58:45;71.63;;;68.33;;
1140;SDS011;559;48.628;8.924;2023-07-31T06:01:13;75.60;;;72.20;;
1140;SDS011;559;48.628;8.924;2023-07-31T06:03:39;72.13;;;68.23;;
1140;SDS011;559;48.628;8.924;2023-07-31T06:06:06;73.80;;;70.30;;
1140;SDS011;559;48.628;8.924;2023-07-31T06:08:32;72.90;;;69.00;;
1140;SDS011;559;48.628;8.924;2023-07-31T06:10:59;78.17;;;74.67;;
1140;SDS011;559;48.628;8.924;2023-07-31T06:13:26;74.77;;;71.07;;
1140;SDS011;559;48.628;8.924;2023-07-31T06:15:52;75.30;;;71.63;;
1140;SDS011;559;48.628;8.924;2023-07-31T06:18:20;78.30;;;74.60;;
1140;SDS011;559;48.628;8.924;2023-07-31T06:20:46;78.20;;;74.47;;
1140;SDS011;559;48.628;8.924;2023-07-31T06:23:18;76.60;;;72.80;;
1140;SDS011;559;48.628;8.924;2023-07-31T06:25:45;72.73;;;69.13;;
1140;SDS011;559;48.628;8.924;2023-07-31T06:28:12;73.83;;;70.23;;
1140;SDS011;559;48.628;8.924;2023-07-31T06:30:38;77.97;;;74.37;;
1140;SDS011;559;48.628;8.924;2023-07-31T06:33:05;75.10;;;71.50;;
1140;SDS011;559;48.628;8.924;2023-07-31T06:35:32;77.17;;;73.77;;
1140;SDS011;559;48.628;8.924;2023-07-31T06:37:59;82.33;;;78.63;;
1140;SDS011;559;48.628;8.924;2023-07-31T06:40:26;81.20;;;77.60;;
1140;SDS011;559;48.628;8.924;2023-07-31T06:42:53;83.50;;;80.03;;
1140;SDS011;559;48.628;8.924;2023-07-31T06:45:19;84.07;;;80.47;;
1140;SDS011;559;48.628;8.924;2023-07-31T06:47:47;81.87;;;78.57;;
1140;SDS011;559;48.628;8.924;2023-07-31T06:50:13;81.23;;;77.90;;
1140;SDS011;559;48.628;8.924;2023-07-31T06:52:41;83.60;;;80.30;;
1140;SDS011;559;48.628;8.924;2023-07-31T06:55:16;83.80;;;80.50;;
1140;SDS011;559;48.628;8.924;2023-07-31T06:57:44;85.53;;;81.90;;
1140;SDS011;559;48.628;8.924;2023-07-31T07:00:10;86.87;;;83.10;;
1140;SDS011;559;48.628;8.924;2023-07-31T07:02:37;83.07;;;79.27;;
1140;SDS011;559;48.628;8.924;2023-07-31T07:05:04;86.13;;;82.73;;
1140;SDS011;559;48.628;8.924;2023-07-31T07:07:31;87.93;;;84.43;;
1140;SDS011;559;48.628;8.924;2023-07-31T07:09:59;86.57;;;83.07;;
1140;SDS011;559;48.628;8.924;2023-07-31T07:12:26;88.70;;;85.00;;
1140;SDS011;559;48.628;8.924;2023-07-31T07:14:53;89.20;;;85.80;;
1140;SDS011;559;48.628;8.924;2023-07-31T07:17:19;89.47;;;86.17;;
1140;SDS011;559;48.628;8.924;2023-07-31T07:19:47;88.27;;;84.87;;
1140;SDS011;559;48.628;8.924;2023-07-31T07:22:14;88.00;;;84.70;;
1140;SDS011;559;48.628;8.924;2023-07-31T07:24:40;88.27;;;84.97;;
1140;SDS011;559;48.628;8.924;2023-07-31T07:27:09;88.50;;;85.50;;
1140;SDS011;559;48.628;8.924;2023-07-31T07:29:35;86.97;;;83.80;;
1140;SDS011;559;48.628;8.924;2023-07-31T07:32:02;88.23;;;84.70;;
1140;SDS011;559;48.628;8.924;2023-07-31T07:34:28;85.90;;;82.53;;
1140;SDS011;559;48.628;8.924;2023-07-31T07:36:55;83.30;;;80.40;;
1140;SDS011;559;48.628;8.924;2023-07-31T07:39:21;82.00;;;79.30;;
1140;SDS011;559;48.628;8.924;2023-07-31T07:41:48;81.13;;;78.50;;
1140;SDS011;559;48.628;8.924;2023-07-31T07:44:16;83.30;;;80.13;;
1140;SDS011;559;48.628;8.924;2023-07-31T07:46:43;79.90;;;77.20;;
1140;SDS011;559;48.628;8.924;2023-07-31T07:49:09;79.10;;;76.53;;
1140;SDS011;559;48.628;8.924;2023-07-31T07:51:36;78.00;;;75.50;;
1140;SDS011;559;48.628;8.924;2023-07-31T07:54:02;76.00;;;73.60;;
1140;SDS011;559;48.628;8.924;2023-07-31T07:56:29;75.23;;;72.83;;
1140;SDS011;559;48.628;8.924;2023-07-31T07:58:55;72.40;;;70.20;;
1140;SDS011;559;48.628;8.924;2023-07-31T08:01:23;61.93;;;60.13;;
1140;SDS011;559;48.628;8.924;2023-07-31T08:03:49;61.23;;;58.90;;
1140;SDS011;559;48.628;8.924;2023-07-31T08:06:16;59.50;;;57.60;;
1140;SDS011;559;48.628;8.924;2023-07-31T08:08:43;56.70;;;54.80;;
1140;SDS011;559;48.628;8.924;2023-07-31T08:11:09;61.10;;;59.10;;
1140;SDS011;559;48.628;8.924;2023-07-31T08:13:36;60.23;;;58.53;;
1140;SDS011;559;48.628;8.924;2023-07-31T08:16:03;56.80;;;55.03;;
1140;SDS011;559;48.628;8.924;2023-07-31T08:18:31;57.87;;;55.90;;
1140;SDS011;559;48.628;8.924;2023-07-31T08:20:58;58.20;;;56.50;;
1140;SDS011;559;48.628;8.924;2023-07-31T08:23:24;59.83;;;58.03;;
1140;SDS011;559;48.628;8.924;2023-07-31T08:25:51;57.10;;;55.10;;
1140;SDS011;559;48.628;8.924;2023-07-31T08:28:17;57.80;;;56.00;;
1140;SDS011;559;48.628;8.924;2023-07-31T08:30:44;56.50;;;54.67;;
1140;SDS011;559;48.628;8.924;2023-07-31T08:33:11;58.13;;;56.43;;
1140;SDS011;559;48.628;8.924;2023-07-31T08:35:39;59.57;;;57.50;;
1140;SDS011;559;48.628;8.924;2023-07-31T08:38:05;59.80;;;58.00;;
1140;SDS011;559;48.628;8.924;2023-07-31T08:40:32;58.53;;;56.83;;
1140;SDS011;559;48.628;8.924;2023-07-31T08:42:58;61.93;;;59.90;;
1140;SDS011;559;48.628;8.924;2023-07-31T08:45:27;59.30;;;57.60;;
1140;SDS011;559;48.628;8.924;2023-07-31T08:47:54;58.17;;;56.07;;
1140;SDS011;559;48.628;8.924;2023-07-31T08:50:22;58.70;;;56.70;;
1140;SDS011;559;48.628;8.924;2023-07-31T08:52:50;58.10;;;56.30;;
1140;SDS011;559;48.628;8.924;2023-07-31T08:55:18;62.10;;;60.00;;
1140;SDS011;559;48.628;8.924;2023-07-31T08:57:48;59.23;;;57.23;;
1140;SDS011;559;48.628;8.924;2023-07-31T09:00:15;45.20;;;43.50;;
1140;SDS011;559;48.628;8.924;2023-07-31T09:02:43;42.63;;;41.20;;
1140;SDS011;559;48.628;8.924;2023-07-31T09:05:11;41.13;;;39.80;;
1140;SDS011;559;48.628;8.924;2023-07-31T09:07:38;40.37;;;38.77;;
1140;SDS011;559;48.628;8.924;2023-07-31T09:10:07;37.67;;;36.30;;
1140;SDS011;559;48.628;8.924;2023-07-31T09:12:37;39.53;;;38.40;;
1140;SDS011;559;48.628;8.924;2023-07-31T09:15:04;35.03;;;33.27;;
1140;SDS011;559;48.628;8.924;2023-07-31T09:17:32;31.80;;;30.60;;
1140;SDS011;559;48.628;8.924;2023-07-31T09:20:03;28.53;;;27.43;;
1140;SDS011;559;48.628;8.924;2023-07-31T09:22:39;30.43;;;29.37;;
1140;SDS011;559;48.628;8.924;2023-07-31T09:25:15;32.00;;;30.60;;
1140;SDS011;559;48.628;8.924;2023-07-31T09:27:45;35.03;;;33.83;;
1140;SDS011;559;48.628;8.924;2023-07-31T09:30:12;33.80;;;32.63;;
1140;SDS011;559;48.628;8.924;2023-07-31T09:32:39;34.20;;;33.10;;
1140;SDS011;559;48.628;8.924;2023-07-31T09:35:12;37.33;;;36.03;;
1140;SDS011;559;48.628;8.924;2023-07-31T09:37:40;36.03;;;35.03;;
1140;SDS011;559;48.628;8.924;2023-07-31T09:40:07;33.50;;;32.30;;
1140;SDS011;559;48.628;8.924;2023-07-31T09:42:35;35.03;;;33.90;;
1140;SDS011;559;48.628;8.924;2023-07-31T09:45:08;37.70;;;36.50;;
1140;SDS011;559;48.628;8.924;2023-07-31T09:47:35;33.23;;;32.03;;
1140;SDS011;559;48.628;8.924;2023-07-31T09:50:04;28.03;;;27.03;;
1140;SDS011;559;48.628;8.924;2023-07-31T09:52:33;20.77;;;20.17;;
1140;SDS011;559;48.628;8.924;2023-07-31T09:55:00;23.07;;;22.27;;
1140;SDS011;559;48.628;8.924;2023-07-31T09:57:26;20.70;;;19.43;;
1140;SDS011;559;48.628;8.924;2023-07-31T09:59:55;16.23;;;15.63;;
1140;SDS011;559;48.628;8.924;2023-07-31T10:02:22;15.50;;;14.80;;
1140;SDS011;559;48.628;8.924;2023-07-31T10:04:50;8.90;;;8.37;;
1140;SDS011;559;48.628;8.924;2023-07-31T10:07:18;9.20;;;8.83;;
1140;SDS011;559;48.628;8.924;2023-07-31T10:09:44;8.17;;;7.77;;
1140;SDS011;559;48.628;8.924;2023-07-31T10:12:13;9.43;;;8.70;;
1140;SDS011;559;48.628;8.924;2023-07-31T10:14:41;7.67;;;7.10;;
1140;SDS011;559;48.628;8.924;2023-07-31T10:17:08;7.07;;;6.47;;
1140;SDS011;559;48.628;8.924;2023-07-31T10:19:35;6.53;;;5.40;;
1140;SDS011;559;48.628;8.924;2023-07-31T10:22:02;7.50;;;7.03;;
1140;SDS011;559;48.628;8.924;2023-07-31T10:24:29;5.90;;;5.30;;
1140;SDS011;559;48.628;8.924;2023-07-31T10:26:57;5.60;;;5.20;;
1140;SDS011;559;48.628;8.924;2023-07-31T10:29:24;3.80;;;3.60;;
1140;SDS011;559;48.628;8.924;2023-07-31T10:31:52;5.57;;;5.13;;
1140;SDS011;559;48.628;8.924;2023-07-31T10:34:21;5.67;;;5.27;;
1140;SDS011;559;48.628;8.924;2023-07-31T10:36:47;5.40;;;5.00;;
1140;SDS011;559;48.628;8.924;2023-07-31T10:39:33;4.83;;;4.53;;
1140;SDS011;559;48.628;8.924;2023-07-31T10:42:09;6.13;;;4.67;;
1140;SDS011;559;48.628;8.924;2023-07-31T10:44:36;4.77;;;4.10;;
1140;SDS011;559;48.628;8.924;2023-07-31T10:47:02;4.53;;;3.40;;
1140;SDS011;559;48.628;8.924;2023-07-31T10:49:30;6.50;;;3.70;;
1140;SDS011;559;48.628;8.924;2023-07-31T10:51:58;4.00;;;3.53;;
1140;SDS011;559;48.628;8.924;2023-07-31T10:54:24;3.23;;;2.97;;
1140;SDS011;559;48.628;8.924;2023-07-31T10:56:53;3.67;;;3.33;;
1140;SDS011;559;48.628;8.924;2023-07-31T10:59:19;5.27;;;3.13;;
1140;SDS011;559;48.628;8.924;2023-07-31T11:01:53;3.93;;;3.53;;
1140;SDS011;559;48.628;8.924;2023-07-31T11:04:22;3.67;;;3.40;;
1140;SDS011;559;48.628;8.924;2023-07-31T11:06:56;4.03;;;3.57;;
1140;SDS011;559;48.628;8.924;2023-07-31T11:09:24;3.20;;;3.00;;
1140;SDS011;559;48.628;8.924;2023-07-31T11:11:54;6.20;;;4.20;;
1140;SDS011;559;48.628;8.924;2023-07-31T11:14:21;3.50;;;3.20;;
1140;SDS011;559;48.628;8.924;2023-07-31T11:16:49;4.60;;;4.20;;
1140;SDS011;559;48.628;8.924;2023-07-31T11:19:20;4.60;;;3.70;;
1140;SDS011;559;48.628;8.924;2023-07-31T11:21:47;3.73;;;3.43;;
1140;SDS011;559;48.628;8.924;2023-07-31T11:24:18;4.90;;;4.50;;
1140;SDS011;559;48.628;8.924;2023-07-31T11:26:49;5.77;;;4.67;;
1140;SDS011;559;48.628;8.924;2023-07-31T11:29:16;6.40;;;5.90;;
1140;SDS011;559;48.628;8.924;2023-07-31T11:31:43;5.17;;;4.83;;
1140;SDS011;559;48.628;8.924;2023-07-31T11:34:10;5.23;;;4.83;;
1140;SDS011;559;48.628;8.924;2023-07-31T11:36:37;5.40;;;4.83;;
1140;SDS011;559;48.628;8.924;2023-07-31T11:39:07;5.73;;;5.23;;
1140;SDS011;559;48.628;8.924;2023-07-31T11:41:35;5.60;;;5.10;;
1140;SDS011;559;48.628;8.924;2023-07-31T11:44:02;4.93;;;4.40;;
1140;SDS011;559;48.628;8.924;2023-07-31T11:46:29;5.63;;;5.30;;
1140;SDS011;559;48.628;8.924;2023-07-31T11:48:58;8.03;;;7.37;;
1140;SDS011;559;48.628;8.924;2023-07-31T11:51:25;7.80;;;7.20;;
1140;SDS011;559;48.628;8.924;2023-07-31T11:53:54;6.80;;;6.40;;
1140;SDS011;559;48.628;8.924;2023-07-31T11:56:22;6.97;;;6.57;;
1140;SDS011;559;48.628;8.924;2023-07-31T11:58:51;7.00;;;6.50;;
1140;SDS011;559;48.628;8.924;2023-07-31T12:01:20;5.90;;;5.50;;
1140;SDS011;559;48.628;8.924;2023-07-31T12:03:48;6.80;;;6.40;;
1140;SDS011;559;48.628;8.924;2023-07-31T12:06:15;7.03;;;6.50;;
1140;SDS011;559;48.628;8.924;2023-07-31T12:08:42;7.07;;;6.60;;
1140;SDS011;559;48.628;8.924;2023-07-31T12:11:09;7.70;;;7.30;;
1140;SDS011;559;48.628;8.924;2023-07-31T12:13:36;7.87;;;7.47;;
1140;SDS011;559;48.628;8.924;2023-07-31T12:16:04;9.67;;;9.17;;
1140;SDS011;559;48.628;8.924;2023-07-31T12:18:33;8.67;;;8.07;;
1140;SDS011;559;48.628;8.924;2023-07-31T12:21:01;9.20;;;8.70;;
1140;SDS011;559;48.628;8.924;2023-07-31T12:23:28;10.13;;;9.53;;
1140;SDS011;559;48.628;8.924;2023-07-31T12:26:01;8.60;;;8.00;;
1140;SDS011;559;48.628;8.924;2023-07-31T12:28:28;8.93;;;8.17;;
1140;SDS011;559;48.628;8.924;2023-07-31T12:30:56;7.53;;;7.13;;
1140;SDS011;559;48.628;8.924;2023-07-31T12:33:29;6.83;;;6.27;;
1140;SDS011;559;48.628;8.924;2023-07-31T12:35:57;7.77;;;7.30;;
1140;SDS011;559;48.628;8.924;2023-07-31T12:38:23;9.70;;;9.00;;
1140;SDS011;559;48.628;8.924;2023-07-31T12:40:50;6.60;;;6.20;;
1140;SDS011;559;48.628;8.924;2023-07-31T12:43:16;10.47;;;9.80;;
1140;SDS011;559;48.628;8.924;2023-07-31T12:45:43;5.87;;;5.37;;
1140;SDS011;559;48.628;8.924;2023-07-31T12:48:09;6.20;;;5.90;;
1140;SDS011;559;48.628;8.924;2023-07-31T12:50:37;5.83;;;5.30;;
1140;SDS011;559;48.628;8.924;2023-07-31T12:53:04;4.97;;;4.57;;
1140;SDS011;559;48.628;8.924;2023-07-31T12:55:31;5.00;;;4.70;;
1140;SDS011;559;48.628;8.924;2023-07-31T12:57:59;5.73;;;5.13;;
1140;SDS011;559;48.628;8.924;2023-07-31T13:00:25;7.40;;;4.73;;
1140;SDS011;559;48.628;8.924;2023-07-31T13:02:52;4.57;;;4.37;;
1140;SDS011;559;48.628;8.924;2023-07-31T13:05:19;6.10;;;5.50;;
1140;SDS011;559;48.628;8.924;2023-07-31T13:07:48;5.77;;;5.43;;
1140;SDS011;559;48.628;8.924;2023-07-31T13:10:14;6.40;;;6.03;;
1140;SDS011;559;48.628;8.924;2023-07-31T13:12:41;7.73;;;7.00;;
1140;SDS011;559;48.628;8.924;2023-07-31T13:15:08;6.20;;;5.90;;
1140;SDS011;559;48.628;8.924;2023-07-31T13:17:35;8.17;;;7.67;;
1140;SDS011;559;48.628;8.924;2023-07-31T13:20:02;6.20;;;5.80;;
1140;SDS011;559;48.628;8.924;2023-07-31T13:22:30;7.07;;;6.57;;
1140;SDS011;559;48.628;8.924;2023-07-31T13:24:58;7.50;;;7.07;;
1140;SDS011;559;48.628;8.924;2023-07-31T13:27:24;6.90;;;6.50;;
1140;SDS011;559;48.628;8.924;2023-07-31T13:29:51;7.60;;;6.97;;
1140;SDS011;559;48.628;8.924;2023-07-31T13:32:18;7.80;;;7.20;;
1140;SDS011;559;48.628;8.924;2023-07-31T13:34:45;6.00;;;5.70;;
1140;SDS011;559;48.628;8.924;2023-07-31T13:37:12;8.27;;;5.70;;
1140;SDS011;559;48.628;8.924;2023-07-31T13:39:41;5.83;;;5.43;;
1140;SDS011;559;48.628;8.924;2023-07-31T13:42:09;6.40;;;6.00;;
1140;SDS011;559;48.628;8.924;2023-07-31T13:44:37;3.80;;;3.50;;
1140;SDS011;559;48.628;8.924;2023-07-31T13:47:04;5.63;;;3.73;;
1140;SDS011;559;48.628;8.924;2023-07-31T13:49:30;75.63;;;18.70;;
1140;SDS011;559;48.628;8.924;2023-07-31T13:51:57;400.80;;;71.63;;
1140;SDS011;559;48.628;8.924;2023-07-31T13:54:24;3.37;;;3.17;;
1140;SDS011;559;48.628;8.924;2023-07-31T13:56:51;3.17;;;2.80;;
1140;SDS011;559;48.628;8.924;2023-07-31T13:59:19;3.30;;;3.10;;
1140;SDS011;559;48.628;8.924;2023-07-31T14:01:46;3.10;;;2.87;;
1140;SDS011;559;48.628;8.924;2023-07-31T14:04:12;3.40;;;2.80;;
1140;SDS011;559;48.628;8.924;2023-07-31T14:06:39;3.20;;;3.00;;
1140;SDS011;559;48.628;8.924;2023-07-31T14:09:06;2.83;;;2.63;;
1140;SDS011;559;48.628;8.924;2023-07-31T14:11:32;3.43;;;2.07;;
1140;SDS011;559;48.628;8.924;2023-07-31T14:13:59;2.93;;;2.70;;
1140;SDS011;559;48.628;8.924;2023-07-31T14:16:27;3.50;;;2.43;;
1140;SDS011;559;48.628;8.924;2023-07-31T14:18:54;3.97;;;2.93;;
1140;SDS011;559;48.628;8.924;2023-07-31T14:21:20;4.80;;;2.70;;
1140;SDS011;559;48.628;8.924;2023-07-31T14:23:47;5.43;;;3.13;;
1140;SDS011;559;48.628;8.924;2023-07-31T14:26:15;3.20;;;2.90;;
1140;SDS011;559;48.628;8.924;2023-07-31T14:28:42;2.83;;;2.63;;
1140;SDS011;559;48.628;8.924;2023-07-31T14:31:08;4.03;;;3.67;;
1140;SDS011;559;48.628;8.924;2023-07-31T14:33:38;3.23;;;2.93;;
1140;SDS011;559;48.628;8.924;2023-07-31T14:36:05;6.00;;;2.90;;
1140;SDS011;559;48.628;8.924;2023-07-31T14:38:32;3.10;;;2.80;;
1140;SDS011;559;48.628;8.924;2023-07-31T14:40:58;5.70;;;2.67;;
1140;SDS011;559;48.628;8.924;2023-07-31T14:43:25;2.83;;;2.63;;
1140;SDS011;559;48.628;8.924;2023-07-31T14:45:51;3.33;;;3.03;;
1140;SDS011;559;48.628;8.924;2023-07-31T14:48:21;2.93;;;2.73;;
1140;SDS011;559;48.628;8.924;2023-07-31T14:50:48;3.40;;;2.47;;
1140;SDS011;559;48.628;8.924;2023-07-31T14:53:15;4.20;;;2.93;;
1140;SDS011;559;48.628;8.924;2023-07-31T14:55:41;4.03;;;3.00;;
1140;SDS011;559;48.628;8.924;2023-07-31T14:58:08;3.67;;;3.17;;
1140;SDS011;559;48.628;8.924;2023-07-31T15:00:36;6.10;;;3.37;;
1140;SDS011;559;48.628;8.924;2023-07-31T15:03:02;4.03;;;3.20;;
1140;SDS011;559;48.628;8.924;2023-07-31T15:05:29;3.30;;;3.00;;
1140;SDS011;559;48.628;8.924;2023-07-31T15:07:57;6.50;;;3.90;;
1140;SDS011;559;48.628;8.924;2023-07-31T15:10:23;4.50;;;4.20;;
1140;SDS011;559;48.628;8.924;2023-07-31T15:12:50;4.60;;;4.20;;
1140;SDS011;559;48.628;8.924;2023-07-31T15:15:16;3.87;;;3.67;;
1140;SDS011;559;48.628;8.924;2023-07-31T15:17:43;7.17;;;4.20;;
1140;SDS011;559;48.628;8.924;2023-07-31T15:20:10;4.73;;;4.33;;
1140;SDS011;559;48.628;8.924;2023-07-31T15:22:37;2.90;;;2.60;;
1140;SDS011;559;48.628;8.924;2023-07-31T15:25:05;4.17;;;3.80;;